createdAt,value
2018-06-09T00:02:05.149Z,96.60
2018-06-09T00:05:11.642Z,96.80
2018-06-09T00:08:17.965Z,96.50
2018-06-09T00:11:25.382Z,97.10
2018-06-09T00:14:30.065Z,98.20
2018-06-09T00:17:36.568Z,98.10
2018-06-09T00:20:46.532Z,97.30
2018-06-09T00:23:57.156Z,97.30
2018-06-09T00:27:03.705Z,98.20
2018-06-09T00:30:08.282Z,98.20
2018-06-09T00:33:12.987Z,98.20
2018-06-09T00:36:18.155Z,98.10
2018-06-09T00:39:23.839Z,99.00
2018-06-09T00:42:29.133Z,98.40
2018-06-09T00:45:35.011Z,98.60
2018-06-09T00:48:40.714Z,98.60
2018-06-09T00:51:46.758Z,99.30
2018-06-09T00:54:53.254Z,98.90
2018-06-09T00:58:00.476Z,99.20
2018-06-09T01:01:12.728Z,99.10
2018-06-09T01:04:17.935Z,99.10
2018-06-09T01:07:24.743Z,99.10
2018-06-09T01:10:50.058Z,99.10
2018-06-09T01:13:58.882Z,99.10
2018-06-09T01:17:06.449Z,98.80
2018-06-09T01:20:11.771Z,99.10
2018-06-09T01:26:29.221Z,99.50
2018-06-09T01:29:35.838Z,99.40
2018-06-09T01:32:40.831Z,99.80
2018-06-09T01:35:48.536Z,99.50
2018-06-09T01:38:52.893Z,98.80
2018-06-09T01:45:03.921Z,99.80
2018-06-09T01:48:10.769Z,99.90
2018-06-09T01:51:18.927Z,99.60
2018-06-09T01:54:25.480Z,99.90
2018-06-09T01:57:31.970Z,99.60
2018-06-09T02:00:36.661Z,99.30
2018-06-09T02:03:42.494Z,99.70
2018-06-09T02:06:48.578Z,99.90
2018-06-09T02:09:52.904Z,99.90
2018-06-09T02:12:59.054Z,99.90
2018-06-09T02:16:04.302Z,99.90
2018-06-09T02:19:09.538Z,99.90
2018-06-09T02:22:15.348Z,99.90
2018-06-09T02:25:23.097Z,99.90
2018-06-09T02:28:29.245Z,99.90
2018-06-09T02:31:36.331Z,99.90
2018-06-09T02:34:41.859Z,99.90
2018-06-09T02:37:46.228Z,99.90
2018-06-09T02:40:50.753Z,99.90
2018-06-09T02:43:56.190Z,99.90
2018-06-09T02:47:01.481Z,99.90
2018-06-09T02:50:07.488Z,99.90
2018-06-09T02:53:12.967Z,99.90
2018-06-09T02:59:22.038Z,99.90
2018-06-09T03:02:26.627Z,99.90
2018-06-09T03:05:34.275Z,99.90
2018-06-09T03:08:42.805Z,99.90
2018-06-09T03:11:48.549Z,99.90
2018-06-09T03:14:57.968Z,99.90
2018-06-09T03:18:07.175Z,99.90
2018-06-09T03:21:13.158Z,99.90
2018-06-09T03:24:18.156Z,99.90
2018-06-09T03:27:24.225Z,99.90
2018-06-09T03:30:33.771Z,99.90
2018-06-09T03:33:39.039Z,99.90
2018-06-09T03:36:44.945Z,99.90
2018-06-09T03:39:50.170Z,99.90
2018-06-09T03:42:56.034Z,99.90
2018-06-09T03:46:04.343Z,99.90
2018-06-09T03:49:09.820Z,99.90
2018-06-09T03:52:15.369Z,99.90
2018-06-09T03:55:30.794Z,99.90
2018-06-09T03:58:39.205Z,99.90
2018-06-09T04:05:21.445Z,99.90
2018-06-09T04:08:29.363Z,99.90
2018-06-09T04:11:34.484Z,99.90
2018-06-09T04:14:43.128Z,99.90
2018-06-09T04:17:47.390Z,99.90
2018-06-09T04:20:54.660Z,99.90
2018-06-09T04:23:59.843Z,99.90
2018-06-09T04:27:06.369Z,99.80
2018-06-09T04:30:10.971Z,99.90
2018-06-09T04:33:15.568Z,99.90
2018-06-09T04:36:20.905Z,99.90
2018-06-09T04:39:26.255Z,99.00
2018-06-09T04:42:32.056Z,98.90
2018-06-09T04:45:37.369Z,98.30
2018-06-09T04:48:45.184Z,98.80
2018-06-09T04:51:52.705Z,99.40
2018-06-09T04:55:00.478Z,98.50
2018-06-09T04:58:06.942Z,96.80
2018-06-09T05:01:16.882Z,97.10
2018-06-09T05:04:23.453Z,96.90
2018-06-09T05:10:36.597Z,96.50
2018-06-09T05:13:44.443Z,95.30
2018-06-09T05:16:51.974Z,95.10
2018-06-09T05:20:03.772Z,94.90
2018-06-09T05:23:09.744Z,94.50
2018-06-09T05:26:18.598Z,95.30
2018-06-09T05:29:24.353Z,93.60
2018-06-09T05:32:32.641Z,93.70
2018-06-09T05:35:37.638Z,94.40
2018-06-09T05:38:47.933Z,93.90
2018-06-09T05:41:53.596Z,94.10
2018-06-09T05:44:58.829Z,93.50
2018-06-09T05:48:04.376Z,92.80
2018-06-09T05:51:10.131Z,91.20
2018-06-09T05:54:14.762Z,92.90
2018-06-09T05:57:21.095Z,91.80
2018-06-09T06:00:26.468Z,91.50
2018-06-09T06:07:27.747Z,91.10
2018-06-09T06:10:35.275Z,89.10
2018-06-09T06:13:40.000Z,85.40
2018-06-09T06:16:47.134Z,81.90
2018-06-09T06:22:58.184Z,75.80
2018-06-09T06:26:03.313Z,75.30
2018-06-09T06:29:09.433Z,78.10
2018-06-09T06:32:15.005Z,72.70
2018-06-09T06:35:20.355Z,72.60
2018-06-09T06:38:25.124Z,69.60
2018-06-09T06:41:30.427Z,66.20
2018-06-09T06:44:36.586Z,62.50
2018-06-09T06:47:41.967Z,59.10
2018-06-09T06:50:48.132Z,58.10
2018-06-09T06:53:53.603Z,55.00
2018-06-09T06:56:58.398Z,54.30
2018-06-09T07:00:03.105Z,55.40
2018-06-09T07:03:07.973Z,53.50
2018-06-09T07:06:12.817Z,46.90
2018-06-09T07:09:20.521Z,49.50
2018-06-09T07:12:26.939Z,49.90
2018-06-09T07:15:47.592Z,47.40
2018-06-09T07:18:55.130Z,46.10
2018-06-09T07:22:05.441Z,44.50
2018-06-09T07:25:12.893Z,41.70
2018-06-09T07:31:42.110Z,38.80
2018-06-09T07:34:48.019Z,41.40
2018-06-09T07:37:53.896Z,42.20
2018-06-09T07:41:00.817Z,42.00
2018-06-09T07:44:06.144Z,44.40
2018-06-09T07:47:16.836Z,45.10
2018-06-09T07:50:21.362Z,46.60
2018-06-09T07:56:36.190Z,46.10
2018-06-09T07:59:44.712Z,47.30
2018-06-09T08:02:50.811Z,45.00
2018-06-09T08:05:56.422Z,42.90
2018-06-09T08:09:04.174Z,43.90
2018-06-09T08:12:09.853Z,45.30
2018-06-09T08:15:15.244Z,44.10
2018-06-09T08:18:19.837Z,44.40
2018-06-09T08:21:26.994Z,44.30
2018-06-09T08:24:35.709Z,44.10
2018-06-09T08:27:40.960Z,43.70
2018-06-09T08:30:47.226Z,41.10
2018-06-09T08:33:55.198Z,41.40
2018-06-09T08:36:59.778Z,42.30
2018-06-09T08:43:12.150Z,42.30
2018-06-09T08:46:17.026Z,41.70
2018-06-09T08:49:25.394Z,42.50
2018-06-09T08:52:31.307Z,44.00
2018-06-09T08:55:37.428Z,40.90
2018-06-09T08:58:42.255Z,41.00
2018-06-09T09:01:48.158Z,41.70
2018-06-09T09:04:54.333Z,43.00
2018-06-09T09:08:01.354Z,42.60
2018-06-09T09:14:12.383Z,42.60
2018-06-09T09:17:19.345Z,43.40
2018-06-09T09:20:26.065Z,43.60
2018-06-09T09:23:31.786Z,41.30
2018-06-09T09:26:39.430Z,41.80
2018-06-09T09:29:45.355Z,43.10
2018-06-09T09:32:50.073Z,42.30
2018-06-09T09:35:54.652Z,42.60
2018-06-09T09:38:59.355Z,43.00
2018-06-09T09:42:04.665Z,44.10
2018-06-09T09:45:09.902Z,44.40
2018-06-09T09:48:14.568Z,46.20
2018-06-09T09:51:20.069Z,47.30
2018-06-09T09:54:25.218Z,46.40
2018-06-09T09:57:32.622Z,46.30
2018-06-09T10:00:37.793Z,44.50
2018-06-09T10:03:46.816Z,45.80
2018-06-09T10:09:56.236Z,46.20
2018-06-09T10:13:01.354Z,47.10
2018-06-09T10:16:08.409Z,47.70
2018-06-09T10:19:14.361Z,47.60
2018-06-09T10:22:45.328Z,44.80
2018-06-09T10:25:50.528Z,46.10
2018-06-09T10:28:56.841Z,47.00
2018-06-09T10:35:10.173Z,46.60
2018-06-09T10:38:18.679Z,46.70
2018-06-09T10:41:26.624Z,48.60
2018-06-09T10:44:32.604Z,46.30
2018-06-09T10:47:39.626Z,46.70
2018-06-09T10:50:46.615Z,48.50
2018-06-09T10:53:56.536Z,50.10
2018-06-09T10:57:05.712Z,49.10
2018-06-09T11:00:15.314Z,49.70
2018-06-09T11:03:22.212Z,50.00
2018-06-09T11:06:28.235Z,51.10
2018-06-09T11:09:34.531Z,49.80
2018-06-09T11:12:44.185Z,48.20
2018-06-09T11:15:49.389Z,49.50
2018-06-09T11:18:55.396Z,49.90
2018-06-09T11:22:03.811Z,49.70
2018-06-09T11:25:14.900Z,49.90
2018-06-09T11:28:21.866Z,47.50
2018-06-09T11:31:29.375Z,49.70
2018-06-09T11:34:37.182Z,49.10
2018-06-09T11:37:43.236Z,49.40
2018-06-09T11:40:48.113Z,51.30
2018-06-09T11:43:54.142Z,53.50
2018-06-09T11:47:00.465Z,52.90
2018-06-09T11:50:09.703Z,52.70
2018-06-09T11:53:18.245Z,55.40
2018-06-09T11:56:24.321Z,55.80
2018-06-09T11:59:39.242Z,55.90
2018-06-09T12:02:43.930Z,56.70
2018-06-09T12:05:50.416Z,55.40
2018-06-09T12:08:55.044Z,56.30
2018-06-09T12:11:59.955Z,56.40
2018-06-09T12:15:05.915Z,56.80
2018-06-09T12:18:10.455Z,57.50
2018-06-09T12:21:19.257Z,57.70
2018-06-09T12:24:27.052Z,56.30
2018-06-09T12:27:34.711Z,57.10
2018-06-09T12:30:39.624Z,56.90
2018-06-09T12:33:44.127Z,56.90
2018-06-09T12:36:48.630Z,57.80
2018-06-09T12:39:53.814Z,55.70
2018-06-09T12:42:58.433Z,56.80
2018-06-09T12:46:02.906Z,56.00
2018-06-09T12:49:08.106Z,56.00
2018-06-09T12:52:19.028Z,55.50
2018-06-09T12:55:24.336Z,56.30
2018-06-09T12:58:33.641Z,56.10
2018-06-09T13:01:40.335Z,56.60
2018-06-09T13:04:50.632Z,55.70
2018-06-09T13:08:05.961Z,55.60
2018-06-09T13:11:10.731Z,56.10
2018-06-09T13:14:18.826Z,55.50
2018-06-09T13:17:33.277Z,55.10
2018-06-09T13:20:40.899Z,55.40
2018-06-09T13:23:47.651Z,57.60
2018-06-09T13:26:52.581Z,56.30
2018-06-09T13:29:59.582Z,55.80
2018-06-09T13:33:05.184Z,54.00
2018-06-09T13:36:15.665Z,53.90
2018-06-09T13:39:23.232Z,54.40
2018-06-09T13:42:33.782Z,55.60
2018-06-09T13:45:39.071Z,54.00
2018-06-09T13:48:44.901Z,54.60
2018-06-09T13:51:49.932Z,54.50
2018-06-09T13:54:54.487Z,55.60
2018-06-09T13:57:59.222Z,56.80
2018-06-09T14:01:05.642Z,57.70
2018-06-09T14:04:11.025Z,58.20
2018-06-09T14:07:15.353Z,58.20
2018-06-09T14:10:19.965Z,58.30
2018-06-09T14:13:25.923Z,58.40
2018-06-09T14:16:32.561Z,58.80
2018-06-09T14:19:37.437Z,58.70
2018-06-09T14:22:41.849Z,59.60
2018-06-09T14:25:46.255Z,59.70
2018-06-09T14:28:54.038Z,59.70
2018-06-09T14:31:58.449Z,58.90
2018-06-09T14:35:03.864Z,59.60
2018-06-09T14:38:08.375Z,59.50
2018-06-09T14:41:12.800Z,60.00
2018-06-09T14:44:17.247Z,60.20
2018-06-09T14:47:23.300Z,64.50
2018-06-09T14:50:35.132Z,70.20
2018-06-09T14:53:42.439Z,73.30
2018-06-09T14:56:47.198Z,71.10
2018-06-09T14:59:53.789Z,69.80
2018-06-09T15:03:03.410Z,69.70
2018-06-09T15:06:08.693Z,68.10
2018-06-09T15:09:13.175Z,66.50
2018-06-09T15:12:17.721Z,64.70
2018-06-09T15:15:25.549Z,63.00
2018-06-09T15:18:33.622Z,61.20
2018-06-09T15:21:38.150Z,61.50
2018-06-09T15:24:42.568Z,63.60
2018-06-09T15:27:46.932Z,65.60
2018-06-09T15:31:24.659Z,66.20
2018-06-09T15:34:33.827Z,67.50
2018-06-09T15:37:38.664Z,66.70
2018-06-09T15:40:43.087Z,66.60
2018-06-09T15:43:50.381Z,67.10
2018-06-09T15:50:09.291Z,66.40
2018-06-09T15:53:13.696Z,65.00
2018-06-09T15:56:18.526Z,65.60
2018-06-09T15:59:25.351Z,64.90
2018-06-09T16:02:36.832Z,65.40
2018-06-09T16:05:43.276Z,64.50
2018-06-09T16:08:47.689Z,67.30
2018-06-09T16:11:54.989Z,70.50
2018-06-09T16:15:01.916Z,70.90
2018-06-09T16:18:06.263Z,71.80
2018-06-09T16:21:10.569Z,72.30
2018-06-09T16:24:15.105Z,72.90
2018-06-09T16:27:19.504Z,70.90
2018-06-09T16:30:26.291Z,70.90
2018-06-09T16:33:33.070Z,71.00
2018-06-09T16:36:38.181Z,72.10
2018-06-09T16:39:42.532Z,73.40
2018-06-09T16:42:46.932Z,74.40
2018-06-09T16:45:52.832Z,75.40
2018-06-09T16:48:59.530Z,75.90
2018-06-09T16:52:06.815Z,76.80
2018-06-09T16:55:11.249Z,77.30
2018-06-09T16:58:15.713Z,78.40
2018-06-09T17:01:21.340Z,78.90
2018-06-09T17:04:27.024Z,79.20
2018-06-09T17:07:33.211Z,79.60
2018-06-09T17:10:37.778Z,79.50
2018-06-09T17:13:42.150Z,79.30
2018-06-09T17:16:46.595Z,80.30
2018-06-09T17:19:53.519Z,81.10
2018-06-09T17:23:04.221Z,81.60
2018-06-09T17:26:08.663Z,82.40
2018-06-09T17:29:13.225Z,82.70
2018-06-09T17:32:17.733Z,83.70
2018-06-09T17:35:24.013Z,84.10
2018-06-09T17:38:28.856Z,83.90
2018-06-09T17:41:36.746Z,84.60
2018-06-09T17:44:41.305Z,84.00
2018-06-09T17:47:46.057Z,83.70
2018-06-09T17:50:50.871Z,84.30
2018-06-09T17:53:58.463Z,84.90
2018-06-09T17:57:05.799Z,85.10
2018-06-09T18:00:13.288Z,85.70
2018-06-09T18:03:19.448Z,86.00
2018-06-09T18:06:24.301Z,86.00
2018-06-09T18:09:30.686Z,86.60
2018-06-09T18:12:35.214Z,87.20
2018-06-09T18:15:39.716Z,87.20
2018-06-09T18:18:44.127Z,86.60
2018-06-09T18:21:48.642Z,86.90
2018-06-09T18:24:54.501Z,88.30
2018-06-09T18:28:02.983Z,87.60
2018-06-09T18:31:07.547Z,87.90
2018-06-09T18:34:11.983Z,88.80
2018-06-09T18:37:16.416Z,89.20
2018-06-09T18:40:21.845Z,88.80
2018-06-09T18:43:27.970Z,89.40
2018-06-09T18:46:34.262Z,89.30
2018-06-09T18:49:39.094Z,89.20
2018-06-09T18:52:43.705Z,89.60
2018-06-09T18:55:48.198Z,89.60
2018-06-09T18:58:55.543Z,90.20
2018-06-09T19:02:02.224Z,90.20
2018-06-09T19:05:09.103Z,90.60
2018-06-09T19:08:13.415Z,90.90
2018-06-09T19:11:18.233Z,90.80
2018-06-09T19:14:25.640Z,91.10
2018-06-09T19:17:35.155Z,91.50
2018-06-09T19:20:39.639Z,91.50
2018-06-09T19:23:43.992Z,91.60
2018-06-09T19:26:49.758Z,91.90
2018-06-09T19:29:54.437Z,92.30
2018-06-09T19:33:05.527Z,91.90
2018-06-09T19:36:10.122Z,92.00
2018-06-09T19:39:14.620Z,91.90
2018-06-09T19:42:21.532Z,91.80
2018-06-09T19:45:31.249Z,92.00
2018-06-09T19:48:37.082Z,91.60
2018-06-09T19:51:41.628Z,91.40
2018-06-09T19:54:46.021Z,91.20
2018-06-09T19:57:50.565Z,91.40
2018-06-09T20:00:56.668Z,91.80
2018-06-09T20:04:01.149Z,92.20
2018-06-09T20:07:05.629Z,92.20
2018-06-09T20:10:10.270Z,92.50
2018-06-09T20:13:14.663Z,92.90
2018-06-09T20:16:24.992Z,92.70
2018-06-09T20:19:32.593Z,93.10
2018-06-09T20:22:37.197Z,93.10
2018-06-09T20:25:41.667Z,93.20
2018-06-09T20:28:46.169Z,93.00
2018-06-09T20:31:54.806Z,93.20
2018-06-09T20:38:04.166Z,93.10
2018-06-09T20:41:08.688Z,93.40
2018-06-09T20:44:13.299Z,93.50
2018-06-09T20:47:17.897Z,93.80
2018-06-09T20:50:53.186Z,93.70
2018-06-09T20:54:04.496Z,93.90
2018-06-09T20:57:12.364Z,93.90
2018-06-09T21:00:16.807Z,93.70
2018-06-09T21:03:22.327Z,94.20
2018-06-09T21:06:33.885Z,94.40
2018-06-09T21:09:38.807Z,94.80
2018-06-09T21:12:43.363Z,94.70
2018-06-09T21:15:48.158Z,94.90
2018-06-09T21:19:00.688Z,95.30
2018-06-09T21:22:05.937Z,95.20
2018-06-09T21:25:10.238Z,95.50
2018-06-09T21:28:20.001Z,95.50
2018-06-09T21:31:32.687Z,95.60
2018-06-09T21:34:55.136Z,95.50
2018-06-09T21:38:07.970Z,95.40
2018-06-09T21:41:18.462Z,95.90
2018-06-09T21:44:28.784Z,95.90
2018-06-09T21:47:34.371Z,96.50
2018-06-09T21:50:40.727Z,96.40
2018-06-09T21:53:45.103Z,96.50
2018-06-09T21:56:51.468Z,96.40
2018-06-09T21:59:58.014Z,96.60
2018-06-09T22:03:05.103Z,96.40
2018-06-09T22:06:09.688Z,96.40
2018-06-09T22:09:14.000Z,96.60
2018-06-09T22:12:20.946Z,96.50
2018-06-09T22:15:26.600Z,97.00
2018-06-09T22:18:34.485Z,97.00
2018-06-09T22:21:39.972Z,96.80
2018-06-09T22:24:44.422Z,97.30
2018-06-09T22:27:52.957Z,97.40
2018-06-09T22:31:00.847Z,97.40
2018-06-09T22:34:07.914Z,96.80
2018-06-09T22:37:12.345Z,97.10
2018-06-09T22:40:16.655Z,97.30
2018-06-09T22:43:22.036Z,97.40
2018-06-09T22:46:26.679Z,97.50
2018-06-09T22:49:33.279Z,97.20
2018-06-09T22:52:40.542Z,97.10
2018-06-09T22:55:44.880Z,97.00
2018-06-09T22:58:54.299Z,97.50
2018-06-09T23:05:09.846Z,98.10
2018-06-09T23:08:14.181Z,98.00
2018-06-09T23:11:19.602Z,97.90
2018-06-09T23:14:29.054Z,97.80
2018-06-09T23:17:35.864Z,97.90
2018-06-09T23:20:40.264Z,98.10
2018-06-09T23:23:44.656Z,98.50
2018-06-09T23:26:50.501Z,98.20
2018-06-09T23:29:55.845Z,98.30
2018-06-09T23:33:00.189Z,98.30
2018-06-09T23:36:09.192Z,98.70
2018-06-09T23:39:13.443Z,98.40
2018-06-09T23:42:17.847Z,98.60
2018-06-09T23:45:22.280Z,98.60
2018-06-09T23:48:29.788Z,98.60
2018-06-09T23:51:40.885Z,98.70
2018-06-09T23:54:45.242Z,98.20
2018-06-09T23:57:52.014Z,99.10
